Terminal Aerodrome Forecast
Issued by NWS

Current Version | Previous Version | Text Only | Print | Product List | Glossary On
Versions: 1 2 3 4 5 6 7 8 9 10 11 12 13 14 15 16 17 18
475
FTUS44 KBMX 172344
TAFTCL
TAF
KTCL 172344Z 1800/1824 22006KT P6SM VCSH SCT040 BKN100
     FM180200 24003KT 5SM BR VCSH OVC015
     FM180500 30002KT 4SM BR VCSH OVC004
     FM181400 02003KT 5SM BR OVC010=

USA.gov is the U.S. government's official web portal to all federal, state and local government web resources and services.